sensor_id;sensor_type;location;lat;lon;timestamp;P1;durP1;ratioP1;P2;durP2;ratioP2
72125;SDS011;59999;51.676;22.650;2022-12-07T00:01:10;34.00;;;12.00;;
72125;SDS011;59999;51.676;22.650;2022-12-07T00:03:41;33.08;;;12.35;;
72125;SDS011;59999;51.676;22.650;2022-12-07T00:06:09;33.53;;;11.88;;
72125;SDS011;59999;51.676;22.650;2022-12-07T00:08:36;32.72;;;11.45;;
72125;SDS011;59999;51.676;22.650;2022-12-07T00:13:53;34.20;;;12.60;;
72125;SDS011;59999;51.676;22.650;2022-12-07T00:16:21;36.33;;;12.30;;
72125;SDS011;59999;51.676;22.650;2022-12-07T00:18:48;42.10;;;12.60;;
72125;SDS011;59999;51.676;22.650;2022-12-07T00:21:15;43.88;;;13.63;;
72125;SDS011;59999;51.676;22.650;2022-12-07T00:23:44;34.83;;;12.33;;
72125;SDS011;59999;51.676;22.650;2022-12-07T00:26:16;41.03;;;14.18;;
72125;SDS011;59999;51.676;22.650;2022-12-07T00:28:48;43.53;;;14.80;;
72125;SDS011;59999;51.676;22.650;2022-12-07T00:31:16;38.80;;;13.27;;
72125;SDS011;59999;51.676;22.650;2022-12-07T00:33:44;40.10;;;13.98;;
72125;SDS011;59999;51.676;22.650;2022-12-07T00:36:12;45.57;;;15.33;;
72125;SDS011;59999;51.676;22.650;2022-12-07T00:38:41;45.85;;;14.65;;
72125;SDS011;59999;51.676;22.650;2022-12-07T00:41:12;40.90;;;14.30;;
72125;SDS011;59999;51.676;22.650;2022-12-07T00:43:42;38.63;;;11.63;;
72125;SDS011;59999;51.676;22.650;2022-12-07T00:46:09;45.78;;;14.45;;
72125;SDS011;59999;51.676;22.650;2022-12-07T00:48:36;47.20;;;14.37;;
72125;SDS011;59999;51.676;22.650;2022-12-07T00:51:03;47.35;;;14.25;;
72125;SDS011;59999;51.676;22.650;2022-12-07T00:53:30;50.42;;;14.73;;
72125;SDS011;59999;51.676;22.650;2022-12-07T00:56:04;43.65;;;12.90;;
72125;SDS011;59999;51.676;22.650;2022-12-07T00:58:34;46.55;;;13.90;;
72125;SDS011;59999;51.676;22.650;2022-12-07T01:01:01;54.57;;;14.60;;
72125;SDS011;59999;51.676;22.650;2022-12-07T01:03:28;55.53;;;14.93;;
72125;SDS011;59999;51.676;22.650;2022-12-07T01:05:54;54.80;;;14.75;;
72125;SDS011;59999;51.676;22.650;2022-12-07T01:08:21;52.20;;;14.77;;
72125;SDS011;59999;51.676;22.650;2022-12-07T01:10:49;56.03;;;15.37;;
72125;SDS011;59999;51.676;22.650;2022-12-07T01:13:15;48.90;;;14.80;;
72125;SDS011;59999;51.676;22.650;2022-12-07T01:15:42;67.10;;;16.48;;
72125;SDS011;59999;51.676;22.650;2022-12-07T01:18:09;54.15;;;15.45;;
72125;SDS011;59999;51.676;22.650;2022-12-07T01:20:36;55.42;;;14.93;;
72125;SDS011;59999;51.676;22.650;2022-12-07T01:23:02;51.23;;;15.30;;
72125;SDS011;59999;51.676;22.650;2022-12-07T01:25:29;61.95;;;16.45;;
72125;SDS011;59999;51.676;22.650;2022-12-07T01:27:55;63.30;;;15.00;;
72125;SDS011;59999;51.676;22.650;2022-12-07T01:30:20;63.67;;;15.93;;
72125;SDS011;59999;51.676;22.650;2022-12-07T01:32:47;66.27;;;15.63;;
72125;SDS011;59999;51.676;22.650;2022-12-07T01:35:12;63.63;;;15.13;;
72125;SDS011;59999;51.676;22.650;2022-12-07T01:37:39;50.72;;;13.75;;
72125;SDS011;59999;51.676;22.650;2022-12-07T01:40:05;54.55;;;15.02;;
72125;SDS011;59999;51.676;22.650;2022-12-07T01:42:33;58.60;;;14.73;;
72125;SDS011;59999;51.676;22.650;2022-12-07T01:47:48;57.13;;;15.40;;
72125;SDS011;59999;51.676;22.650;2022-12-07T01:50:17;51.63;;;14.32;;
72125;SDS011;59999;51.676;22.650;2022-12-07T01:52:45;47.23;;;14.73;;
72125;SDS011;59999;51.676;22.650;2022-12-07T01:55:15;51.53;;;13.90;;
72125;SDS011;59999;51.676;22.650;2022-12-07T01:57:45;48.22;;;14.75;;
72125;SDS011;59999;51.676;22.650;2022-12-07T02:00:14;49.78;;;13.75;;
72125;SDS011;59999;51.676;22.650;2022-12-07T02:02:54;46.92;;;13.85;;
72125;SDS011;59999;51.676;22.650;2022-12-07T02:05:33;43.03;;;13.30;;
72125;SDS011;59999;51.676;22.650;2022-12-07T02:08:01;47.97;;;14.27;;
72125;SDS011;59999;51.676;22.650;2022-12-07T02:10:29;50.95;;;14.38;;
72125;SDS011;59999;51.676;22.650;2022-12-07T02:13:04;48.60;;;13.90;;
72125;SDS011;59999;51.676;22.650;2022-12-07T02:18:17;48.10;;;14.00;;
72125;SDS011;59999;51.676;22.650;2022-12-07T02:21:27;41.70;;;13.43;;
72125;SDS011;59999;51.676;22.650;2022-12-07T02:31:56;44.13;;;13.27;;
72125;SDS011;59999;51.676;22.650;2022-12-07T02:34:37;45.45;;;13.90;;
72125;SDS011;59999;51.676;22.650;2022-12-07T02:37:09;42.35;;;14.25;;
72125;SDS011;59999;51.676;22.650;2022-12-07T02:39:42;35.17;;;12.95;;
72125;SDS011;59999;51.676;22.650;2022-12-07T02:42:14;35.05;;;12.50;;
72125;SDS011;59999;51.676;22.650;2022-12-07T02:44:43;27.57;;;10.27;;
72125;SDS011;59999;51.676;22.650;2022-12-07T02:47:12;27.83;;;11.43;;
72125;SDS011;59999;51.676;22.650;2022-12-07T02:49:41;28.95;;;10.75;;
72125;SDS011;59999;51.676;22.650;2022-12-07T02:52:07;27.40;;;9.27;;
72125;SDS011;59999;51.676;22.650;2022-12-07T02:54:33;22.75;;;9.27;;
72125;SDS011;59999;51.676;22.650;2022-12-07T02:57:11;21.90;;;8.37;;
72125;SDS011;59999;51.676;22.650;2022-12-07T03:02:53;22.08;;;9.18;;
72125;SDS011;59999;51.676;22.650;2022-12-07T03:11:17;25.00;;;9.98;;
72125;SDS011;59999;51.676;22.650;2022-12-07T03:16:22;24.40;;;9.52;;
72125;SDS011;59999;51.676;22.650;2022-12-07T03:19:15;22.58;;;8.50;;
72125;SDS011;59999;51.676;22.650;2022-12-07T03:21:44;21.97;;;8.90;;
72125;SDS011;59999;51.676;22.650;2022-12-07T03:24:17;19.45;;;7.38;;
72125;SDS011;59999;51.676;22.650;2022-12-07T03:26:47;17.27;;;6.70;;
72125;SDS011;59999;51.676;22.650;2022-12-07T03:29:22;20.02;;;7.47;;
72125;SDS011;59999;51.676;22.650;2022-12-07T03:31:54;19.50;;;7.75;;
72125;SDS011;59999;51.676;22.650;2022-12-07T03:34:31;16.90;;;6.53;;
72125;SDS011;59999;51.676;22.650;2022-12-07T03:37:05;20.83;;;8.43;;
72125;SDS011;59999;51.676;22.650;2022-12-07T03:42:28;16.27;;;6.10;;
72125;SDS011;59999;51.676;22.650;2022-12-07T03:44:55;21.23;;;8.38;;
72125;SDS011;59999;51.676;22.650;2022-12-07T03:47:31;21.33;;;9.07;;
72125;SDS011;59999;51.676;22.650;2022-12-07T03:52:42;17.83;;;7.32;;
72125;SDS011;59999;51.676;22.650;2022-12-07T03:55:17;20.05;;;8.35;;
72125;SDS011;59999;51.676;22.650;2022-12-07T03:57:49;16.95;;;6.45;;
72125;SDS011;59999;51.676;22.650;2022-12-07T04:00:18;18.30;;;8.00;;
72125;SDS011;59999;51.676;22.650;2022-12-07T04:02:45;24.15;;;7.80;;
72125;SDS011;59999;51.676;22.650;2022-12-07T04:05:11;24.58;;;8.73;;
72125;SDS011;59999;51.676;22.650;2022-12-07T04:07:37;17.77;;;7.25;;
72125;SDS011;59999;51.676;22.650;2022-12-07T04:10:03;12.63;;;5.50;;
72125;SDS011;59999;51.676;22.650;2022-12-07T04:12:30;16.30;;;6.70;;
72125;SDS011;59999;51.676;22.650;2022-12-07T04:14:56;22.70;;;7.70;;
72125;SDS011;59999;51.676;22.650;2022-12-07T04:17:22;24.02;;;7.72;;
72125;SDS011;59999;51.676;22.650;2022-12-07T04:19:48;21.53;;;6.90;;
72125;SDS011;59999;51.676;22.650;2022-12-07T04:22:14;20.05;;;6.68;;
72125;SDS011;59999;51.676;22.650;2022-12-07T04:24:40;18.73;;;6.45;;
72125;SDS011;59999;51.676;22.650;2022-12-07T04:27:07;17.42;;;5.57;;
72125;SDS011;59999;51.676;22.650;2022-12-07T04:29:32;18.05;;;5.97;;
72125;SDS011;59999;51.676;22.650;2022-12-07T04:31:59;17.80;;;5.88;;
72125;SDS011;59999;51.676;22.650;2022-12-07T04:34:25;12.98;;;5.22;;
72125;SDS011;59999;51.676;22.650;2022-12-07T04:36:51;14.45;;;5.40;;
72125;SDS011;59999;51.676;22.650;2022-12-07T04:39:18;14.83;;;4.83;;
72125;SDS011;59999;51.676;22.650;2022-12-07T04:41:49;11.48;;;4.35;;
72125;SDS011;59999;51.676;22.650;2022-12-07T04:44:16;13.88;;;5.28;;
72125;SDS011;59999;51.676;22.650;2022-12-07T04:46:42;11.70;;;4.95;;
72125;SDS011;59999;51.676;22.650;2022-12-07T04:49:09;10.77;;;4.27;;
72125;SDS011;59999;51.676;22.650;2022-12-07T04:51:36;13.48;;;4.68;;
72125;SDS011;59999;51.676;22.650;2022-12-07T04:54:02;12.18;;;5.00;;
72125;SDS011;59999;51.676;22.650;2022-12-07T04:56:28;11.30;;;4.40;;
72125;SDS011;59999;51.676;22.650;2022-12-07T04:58:54;12.87;;;4.87;;
72125;SDS011;59999;51.676;22.650;2022-12-07T05:01:21;12.82;;;5.00;;
72125;SDS011;59999;51.676;22.650;2022-12-07T05:03:48;12.07;;;4.95;;
72125;SDS011;59999;51.676;22.650;2022-12-07T05:06:14;12.45;;;4.53;;
72125;SDS011;59999;51.676;22.650;2022-12-07T05:08:41;12.05;;;4.38;;
72125;SDS011;59999;51.676;22.650;2022-12-07T05:11:07;11.00;;;4.20;;
72125;SDS011;59999;51.676;22.650;2022-12-07T05:13:34;13.95;;;5.40;;
72125;SDS011;59999;51.676;22.650;2022-12-07T05:16:01;14.57;;;4.85;;
72125;SDS011;59999;51.676;22.650;2022-12-07T05:18:27;13.43;;;4.88;;
72125;SDS011;59999;51.676;22.650;2022-12-07T05:20:53;15.25;;;5.45;;
72125;SDS011;59999;51.676;22.650;2022-12-07T05:23:19;15.93;;;5.70;;
72125;SDS011;59999;51.676;22.650;2022-12-07T05:25:46;18.25;;;7.50;;
72125;SDS011;59999;51.676;22.650;2022-12-07T05:28:12;14.40;;;5.25;;
72125;SDS011;59999;51.676;22.650;2022-12-07T05:30:38;17.00;;;6.72;;
72125;SDS011;59999;51.676;22.650;2022-12-07T05:33:04;18.30;;;6.60;;
72125;SDS011;59999;51.676;22.650;2022-12-07T05:35:30;18.02;;;6.20;;
72125;SDS011;59999;51.676;22.650;2022-12-07T05:37:56;14.25;;;5.85;;
72125;SDS011;59999;51.676;22.650;2022-12-07T05:40:23;19.70;;;7.27;;
72125;SDS011;59999;51.676;22.650;2022-12-07T05:42:49;20.10;;;7.00;;
72125;SDS011;59999;51.676;22.650;2022-12-07T05:45:15;18.20;;;7.38;;
72125;SDS011;59999;51.676;22.650;2022-12-07T05:47:41;19.90;;;7.35;;
72125;SDS011;59999;51.676;22.650;2022-12-07T05:50:07;20.05;;;7.07;;
72125;SDS011;59999;51.676;22.650;2022-12-07T05:52:34;20.48;;;7.97;;
72125;SDS011;59999;51.676;22.650;2022-12-07T05:55:00;17.42;;;5.75;;
72125;SDS011;59999;51.676;22.650;2022-12-07T05:57:26;22.40;;;7.47;;
72125;SDS011;59999;51.676;22.650;2022-12-07T05:59:52;23.13;;;7.03;;
72125;SDS011;59999;51.676;22.650;2022-12-07T06:02:18;19.45;;;6.65;;
72125;SDS011;59999;51.676;22.650;2022-12-07T06:04:45;20.43;;;7.87;;
72125;SDS011;59999;51.676;22.650;2022-12-07T06:07:12;20.48;;;7.80;;
72125;SDS011;59999;51.676;22.650;2022-12-07T06:09:40;17.85;;;6.88;;
72125;SDS011;59999;51.676;22.650;2022-12-07T06:12:06;21.02;;;8.15;;
72125;SDS011;59999;51.676;22.650;2022-12-07T06:14:54;22.23;;;9.20;;
72125;SDS011;59999;51.676;22.650;2022-12-07T06:17:20;32.80;;;12.68;;
72125;SDS011;59999;51.676;22.650;2022-12-07T06:19:46;28.35;;;12.18;;
72125;SDS011;59999;51.676;22.650;2022-12-07T06:22:12;21.27;;;8.00;;
72125;SDS011;59999;51.676;22.650;2022-12-07T06:24:38;23.77;;;9.50;;
72125;SDS011;59999;51.676;22.650;2022-12-07T06:27:05;24.65;;;10.13;;
72125;SDS011;59999;51.676;22.650;2022-12-07T06:29:31;23.10;;;9.30;;
72125;SDS011;59999;51.676;22.650;2022-12-07T06:31:58;25.92;;;10.63;;
72125;SDS011;59999;51.676;22.650;2022-12-07T06:34:24;20.83;;;8.77;;
72125;SDS011;59999;51.676;22.650;2022-12-07T06:36:52;20.23;;;7.57;;
72125;SDS011;59999;51.676;22.650;2022-12-07T06:39:21;28.75;;;11.48;;
72125;SDS011;59999;51.676;22.650;2022-12-07T06:41:49;27.27;;;10.77;;
72125;SDS011;59999;51.676;22.650;2022-12-07T06:44:17;26.92;;;10.15;;
72125;SDS011;59999;51.676;22.650;2022-12-07T06:46:44;27.57;;;11.00;;
72125;SDS011;59999;51.676;22.650;2022-12-07T06:49:10;43.03;;;14.80;;
72125;SDS011;59999;51.676;22.650;2022-12-07T06:51:36;40.00;;;12.57;;
72125;SDS011;59999;51.676;22.650;2022-12-07T06:54:07;41.10;;;13.05;;
72125;SDS011;59999;51.676;22.650;2022-12-07T06:56:33;51.67;;;15.43;;
72125;SDS011;59999;51.676;22.650;2022-12-07T06:58:59;54.80;;;15.83;;
72125;SDS011;59999;51.676;22.650;2022-12-07T07:01:25;52.65;;;17.92;;
72125;SDS011;59999;51.676;22.650;2022-12-07T07:03:52;57.97;;;16.48;;
72125;SDS011;59999;51.676;22.650;2022-12-07T07:06:17;55.40;;;18.13;;
72125;SDS011;59999;51.676;22.650;2022-12-07T07:08:43;47.53;;;15.30;;
72125;SDS011;59999;51.676;22.650;2022-12-07T07:11:09;57.88;;;18.83;;
72125;SDS011;59999;51.676;22.650;2022-12-07T07:13:36;43.77;;;14.37;;
72125;SDS011;59999;51.676;22.650;2022-12-07T07:16:02;46.97;;;16.10;;
72125;SDS011;59999;51.676;22.650;2022-12-07T07:18:29;42.90;;;15.32;;
72125;SDS011;59999;51.676;22.650;2022-12-07T07:20:54;28.98;;;10.52;;
72125;SDS011;59999;51.676;22.650;2022-12-07T07:23:21;33.77;;;12.73;;
72125;SDS011;59999;51.676;22.650;2022-12-07T07:25:47;28.70;;;12.73;;
72125;SDS011;59999;51.676;22.650;2022-12-07T07:28:14;30.10;;;13.50;;
72125;SDS011;59999;51.676;22.650;2022-12-07T07:30:40;24.25;;;9.85;;
72125;SDS011;59999;51.676;22.650;2022-12-07T07:33:06;22.75;;;9.98;;
72125;SDS011;59999;51.676;22.650;2022-12-07T07:35:33;24.03;;;8.40;;
72125;SDS011;59999;51.676;22.650;2022-12-07T07:38:00;26.48;;;10.13;;
72125;SDS011;59999;51.676;22.650;2022-12-07T07:40:26;25.25;;;9.75;;
72125;SDS011;59999;51.676;22.650;2022-12-07T07:42:54;33.47;;;12.93;;
72125;SDS011;59999;51.676;22.650;2022-12-07T07:45:21;20.90;;;8.97;;
72125;SDS011;59999;51.676;22.650;2022-12-07T07:47:48;20.98;;;8.65;;
72125;SDS011;59999;51.676;22.650;2022-12-07T07:50:15;27.17;;;11.38;;
72125;SDS011;59999;51.676;22.650;2022-12-07T07:52:42;36.60;;;14.15;;
72125;SDS011;59999;51.676;22.650;2022-12-07T07:55:08;28.02;;;11.32;;
72125;SDS011;59999;51.676;22.650;2022-12-07T07:57:35;31.47;;;11.57;;
72125;SDS011;59999;51.676;22.650;2022-12-07T08:00:05;25.90;;;10.77;;
72125;SDS011;59999;51.676;22.650;2022-12-07T08:02:36;25.08;;;9.43;;
72125;SDS011;59999;51.676;22.650;2022-12-07T08:05:02;23.15;;;9.10;;
72125;SDS011;59999;51.676;22.650;2022-12-07T08:07:28;23.73;;;9.53;;
72125;SDS011;59999;51.676;22.650;2022-12-07T08:09:54;27.02;;;10.65;;
72125;SDS011;59999;51.676;22.650;2022-12-07T08:12:20;23.38;;;10.07;;
72125;SDS011;59999;51.676;22.650;2022-12-07T08:14:46;26.90;;;11.05;;
72125;SDS011;59999;51.676;22.650;2022-12-07T08:17:12;25.90;;;10.73;;
72125;SDS011;59999;51.676;22.650;2022-12-07T08:19:38;17.70;;;7.22;;
72125;SDS011;59999;51.676;22.650;2022-12-07T08:22:04;23.30;;;10.82;;
72125;SDS011;59999;51.676;22.650;2022-12-07T08:24:33;25.17;;;10.50;;
72125;SDS011;59999;51.676;22.650;2022-12-07T08:27:00;23.53;;;9.70;;
72125;SDS011;59999;51.676;22.650;2022-12-07T08:29:26;27.90;;;10.95;;
72125;SDS011;59999;51.676;22.650;2022-12-07T08:31:52;31.85;;;13.27;;
72125;SDS011;59999;51.676;22.650;2022-12-07T08:34:18;21.58;;;9.05;;
72125;SDS011;59999;51.676;22.650;2022-12-07T08:36:44;30.98;;;12.32;;
72125;SDS011;59999;51.676;22.650;2022-12-07T08:39:10;26.90;;;11.00;;
72125;SDS011;59999;51.676;22.650;2022-12-07T08:41:36;22.88;;;9.68;;
72125;SDS011;59999;51.676;22.650;2022-12-07T08:44:02;26.25;;;9.57;;
72125;SDS011;59999;51.676;22.650;2022-12-07T08:46:36;23.47;;;9.97;;
72125;SDS011;59999;51.676;22.650;2022-12-07T08:52:03;23.05;;;8.52;;
72125;SDS011;59999;51.676;22.650;2022-12-07T08:54:30;22.50;;;8.52;;
72125;SDS011;59999;51.676;22.650;2022-12-07T08:56:59;25.88;;;10.18;;
72125;SDS011;59999;51.676;22.650;2022-12-07T08:59:25;20.33;;;7.73;;
72125;SDS011;59999;51.676;22.650;2022-12-07T09:01:53;23.70;;;9.80;;
72125;SDS011;59999;51.676;22.650;2022-12-07T09:04:19;19.05;;;8.10;;
72125;SDS011;59999;51.676;22.650;2022-12-07T09:06:46;24.83;;;9.32;;
72125;SDS011;59999;51.676;22.650;2022-12-07T09:09:13;25.17;;;11.13;;
72125;SDS011;59999;51.676;22.650;2022-12-07T09:11:39;18.87;;;7.70;;
72125;SDS011;59999;51.676;22.650;2022-12-07T09:14:05;27.55;;;10.20;;
72125;SDS011;59999;51.676;22.650;2022-12-07T09:16:32;29.42;;;9.15;;
72125;SDS011;59999;51.676;22.650;2022-12-07T09:18:58;26.92;;;8.32;;
72125;SDS011;59999;51.676;22.650;2022-12-07T09:21:24;21.37;;;9.23;;
72125;SDS011;59999;51.676;22.650;2022-12-07T09:23:50;17.65;;;6.90;;
72125;SDS011;59999;51.676;22.650;2022-12-07T09:26:16;20.15;;;8.00;;
72125;SDS011;59999;51.676;22.650;2022-12-07T09:28:42;19.73;;;8.03;;
72125;SDS011;59999;51.676;22.650;2022-12-07T09:31:08;16.42;;;6.75;;
72125;SDS011;59999;51.676;22.650;2022-12-07T09:33:34;13.93;;;6.15;;
72125;SDS011;59999;51.676;22.650;2022-12-07T09:36:00;14.77;;;6.47;;
72125;SDS011;59999;51.676;22.650;2022-12-07T09:38:26;14.27;;;5.93;;
72125;SDS011;59999;51.676;22.650;2022-12-07T09:40:53;18.40;;;7.78;;
72125;SDS011;59999;51.676;22.650;2022-12-07T09:43:21;16.65;;;7.22;;
72125;SDS011;59999;51.676;22.650;2022-12-07T09:45:53;19.73;;;8.25;;
72125;SDS011;59999;51.676;22.650;2022-12-07T09:48:22;19.47;;;8.60;;
72125;SDS011;59999;51.676;22.650;2022-12-07T09:50:54;24.27;;;9.75;;
72125;SDS011;59999;51.676;22.650;2022-12-07T09:56:00;19.63;;;7.72;;
72125;SDS011;59999;51.676;22.650;2022-12-07T09:58:28;21.05;;;8.40;;
72125;SDS011;59999;51.676;22.650;2022-12-07T10:00:57;20.70;;;8.80;;
72125;SDS011;59999;51.676;22.650;2022-12-07T10:03:28;18.92;;;7.72;;
72125;SDS011;59999;51.676;22.650;2022-12-07T10:05:55;17.00;;;7.40;;
72125;SDS011;59999;51.676;22.650;2022-12-07T10:08:22;25.90;;;11.10;;
72125;SDS011;59999;51.676;22.650;2022-12-07T10:10:50;23.42;;;9.82;;
72125;SDS011;59999;51.676;22.650;2022-12-07T10:13:21;23.20;;;9.87;;
72125;SDS011;59999;51.676;22.650;2022-12-07T10:15:59;24.17;;;10.05;;
72125;SDS011;59999;51.676;22.650;2022-12-07T10:18:33;28.67;;;10.77;;
72125;SDS011;59999;51.676;22.650;2022-12-07T10:23:39;36.13;;;15.60;;
72125;SDS011;59999;51.676;22.650;2022-12-07T10:26:20;32.17;;;12.98;;
72125;SDS011;59999;51.676;22.650;2022-12-07T10:28:53;21.33;;;8.95;;
72125;SDS011;59999;51.676;22.650;2022-12-07T10:31:20;24.00;;;11.05;;
72125;SDS011;59999;51.676;22.650;2022-12-07T10:33:49;19.58;;;7.38;;
72125;SDS011;59999;51.676;22.650;2022-12-07T10:36:22;14.97;;;5.90;;
72125;SDS011;59999;51.676;22.650;2022-12-07T10:39:02;13.85;;;5.20;;
72125;SDS011;59999;51.676;22.650;2022-12-07T10:41:55;16.83;;;6.32;;
72125;SDS011;59999;51.676;22.650;2022-12-07T10:44:29;11.15;;;4.80;;
72125;SDS011;59999;51.676;22.650;2022-12-07T10:50:25;19.90;;;8.30;;
72125;SDS011;59999;51.676;22.650;2022-12-07T10:53:18;14.02;;;4.90;;
72125;SDS011;59999;51.676;22.650;2022-12-07T11:06:45;13.02;;;5.72;;
72125;SDS011;59999;51.676;22.650;2022-12-07T11:09:30;13.40;;;6.25;;
72125;SDS011;59999;51.676;22.650;2022-12-07T11:15:01;14.45;;;6.43;;
72125;SDS011;59999;51.676;22.650;2022-12-07T11:18:01;17.90;;;7.67;;
72125;SDS011;59999;51.676;22.650;2022-12-07T11:20:41;13.20;;;4.88;;
72125;SDS011;59999;51.676;22.650;2022-12-07T11:28:59;15.00;;;7.07;;
72125;SDS011;59999;51.676;22.650;2022-12-07T11:37:15;14.15;;;5.32;;
72125;SDS011;59999;51.676;22.650;2022-12-07T11:39:46;12.60;;;4.35;;
72125;SDS011;59999;51.676;22.650;2022-12-07T11:42:29;16.33;;;5.90;;
72125;SDS011;59999;51.676;22.650;2022-12-07T11:45:23;19.17;;;6.20;;
72125;SDS011;59999;51.676;22.650;2022-12-07T11:47:54;21.35;;;7.45;;
72125;SDS011;59999;51.676;22.650;2022-12-07T11:53:35;15.45;;;5.88;;
72125;SDS011;59999;51.676;22.650;2022-12-07T11:56:07;12.55;;;5.00;;
72125;SDS011;59999;51.676;22.650;2022-12-07T12:03:58;17.13;;;6.65;;
72125;SDS011;59999;51.676;22.650;2022-12-07T12:06:31;18.10;;;7.90;;
72125;SDS011;59999;51.676;22.650;2022-12-07T12:11:50;17.47;;;6.70;;
72125;SDS011;59999;51.676;22.650;2022-12-07T12:17:18;17.10;;;5.68;;
72125;SDS011;59999;51.676;22.650;2022-12-07T12:22:43;22.13;;;8.10;;
72125;SDS011;59999;51.676;22.650;2022-12-07T12:27:47;16.52;;;7.32;;
72125;SDS011;59999;51.676;22.650;2022-12-07T12:33:02;24.02;;;9.32;;
72125;SDS011;59999;51.676;22.650;2022-12-07T12:35:45;25.00;;;10.18;;
72125;SDS011;59999;51.676;22.650;2022-12-07T12:40:55;40.60;;;15.95;;
72125;SDS011;59999;51.676;22.650;2022-12-07T12:43:45;19.70;;;7.88;;
72125;SDS011;59999;51.676;22.650;2022-12-07T12:51:44;22.05;;;8.80;;
72125;SDS011;59999;51.676;22.650;2022-12-07T12:57:28;18.50;;;7.65;;
72125;SDS011;59999;51.676;22.650;2022-12-07T12:59:57;18.98;;;6.15;;
72125;SDS011;59999;51.676;22.650;2022-12-07T13:04:55;20.70;;;8.70;;
72125;SDS011;59999;51.676;22.650;2022-12-07T13:08:11;15.88;;;5.63;;
72125;SDS011;59999;51.676;22.650;2022-12-07T13:26:13;20.42;;;7.15;;
72125;SDS011;59999;51.676;22.650;2022-12-07T13:28:41;21.70;;;7.50;;
72125;SDS011;59999;51.676;22.650;2022-12-07T13:33:45;14.77;;;5.57;;
72125;SDS011;59999;51.676;22.650;2022-12-07T13:36:18;15.88;;;6.38;;
72125;SDS011;59999;51.676;22.650;2022-12-07T13:38:52;17.60;;;6.85;;
72125;SDS011;59999;51.676;22.650;2022-12-07T13:41:27;18.20;;;6.77;;
72125;SDS011;59999;51.676;22.650;2022-12-07T13:44:02;17.40;;;5.70;;
72125;SDS011;59999;51.676;22.650;2022-12-07T13:52:06;19.65;;;8.55;;
72125;SDS011;59999;51.676;22.650;2022-12-07T13:57:27;20.77;;;7.60;;
72125;SDS011;59999;51.676;22.650;2022-12-07T14:00:00;19.77;;;8.05;;
72125;SDS011;59999;51.676;22.650;2022-12-07T14:02:29;19.45;;;6.70;;
72125;SDS011;59999;51.676;22.650;2022-12-07T14:05:13;14.93;;;6.22;;
72125;SDS011;59999;51.676;22.650;2022-12-07T14:10:35;21.95;;;9.50;;
72125;SDS011;59999;51.676;22.650;2022-12-07T14:13:24;18.73;;;8.63;;
72125;SDS011;59999;51.676;22.650;2022-12-07T14:15:58;26.38;;;10.02;;
72125;SDS011;59999;51.676;22.650;2022-12-07T14:18:27;27.40;;;10.50;;
72125;SDS011;59999;51.676;22.650;2022-12-07T14:23:34;16.40;;;6.80;;
72125;SDS011;59999;51.676;22.650;2022-12-07T14:26:07;39.33;;;15.38;;
72125;SDS011;59999;51.676;22.650;2022-12-07T14:28:42;28.38;;;11.60;;
72125;SDS011;59999;51.676;22.650;2022-12-07T14:31:18;34.28;;;11.90;;
72125;SDS011;59999;51.676;22.650;2022-12-07T14:33:49;27.53;;;10.33;;
72125;SDS011;59999;51.676;22.650;2022-12-07T14:36:15;16.40;;;7.05;;
72125;SDS011;59999;51.676;22.650;2022-12-07T14:38:41;15.45;;;6.05;;
72125;SDS011;59999;51.676;22.650;2022-12-07T14:41:12;22.23;;;10.07;;
72125;SDS011;59999;51.676;22.650;2022-12-07T14:43:58;16.63;;;6.00;;
72125;SDS011;59999;51.676;22.650;2022-12-07T14:46:25;11.97;;;5.27;;
72125;SDS011;59999;51.676;22.650;2022-12-07T14:48:51;19.35;;;8.75;;
72125;SDS011;59999;51.676;22.650;2022-12-07T14:51:17;20.80;;;8.05;;
72125;SDS011;59999;51.676;22.650;2022-12-07T14:53:48;22.15;;;8.02;;
72125;SDS011;59999;51.676;22.650;2022-12-07T14:56:16;18.13;;;6.93;;
72125;SDS011;59999;51.676;22.650;2022-12-07T14:58:42;15.88;;;6.80;;
72125;SDS011;59999;51.676;22.650;2022-12-07T15:01:08;16.02;;;6.03;;
72125;SDS011;59999;51.676;22.650;2022-12-07T15:03:34;11.23;;;4.77;;
72125;SDS011;59999;51.676;22.650;2022-12-07T15:06:03;14.07;;;5.55;;
72125;SDS011;59999;51.676;22.650;2022-12-07T15:08:30;20.40;;;8.55;;
72125;SDS011;59999;51.676;22.650;2022-12-07T15:10:56;18.98;;;8.70;;
72125;SDS011;59999;51.676;22.650;2022-12-07T15:13:22;17.30;;;6.50;;
72125;SDS011;59999;51.676;22.650;2022-12-07T15:16:08;19.77;;;8.65;;
72125;SDS011;59999;51.676;22.650;2022-12-07T15:18:38;21.73;;;9.55;;
72125;SDS011;59999;51.676;22.650;2022-12-07T15:21:04;24.38;;;9.32;;
72125;SDS011;59999;51.676;22.650;2022-12-07T15:23:30;27.23;;;9.23;;
72125;SDS011;59999;51.676;22.650;2022-12-07T15:25:56;20.83;;;7.45;;
72125;SDS011;59999;51.676;22.650;2022-12-07T15:28:22;29.27;;;9.25;;
72125;SDS011;59999;51.676;22.650;2022-12-07T15:30:49;35.43;;;11.33;;
72125;SDS011;59999;51.676;22.650;2022-12-07T15:33:14;29.48;;;8.75;;
72125;SDS011;59999;51.676;22.650;2022-12-07T15:35:42;26.35;;;8.68;;
72125;SDS011;59999;51.676;22.650;2022-12-07T15:38:09;28.05;;;8.95;;
72125;SDS011;59999;51.676;22.650;2022-12-07T15:40:35;20.53;;;7.13;;
72125;SDS011;59999;51.676;22.650;2022-12-07T15:43:01;32.83;;;10.52;;
72125;SDS011;59999;51.676;22.650;2022-12-07T15:45:28;23.40;;;7.70;;
72125;SDS011;59999;51.676;22.650;2022-12-07T15:47:54;32.65;;;10.57;;
72125;SDS011;59999;51.676;22.650;2022-12-07T15:50:23;33.03;;;9.90;;
72125;SDS011;59999;51.676;22.650;2022-12-07T15:52:49;34.25;;;10.32;;
72125;SDS011;59999;51.676;22.650;2022-12-07T15:55:15;30.40;;;10.13;;
72125;SDS011;59999;51.676;22.650;2022-12-07T15:57:41;40.45;;;12.98;;
72125;SDS011;59999;51.676;22.650;2022-12-07T16:00:08;30.30;;;10.93;;
72125;SDS011;59999;51.676;22.650;2022-12-07T16:02:36;35.53;;;13.38;;
72125;SDS011;59999;51.676;22.650;2022-12-07T16:05:03;36.38;;;12.68;;
72125;SDS011;59999;51.676;22.650;2022-12-07T16:07:29;36.83;;;13.27;;
72125;SDS011;59999;51.676;22.650;2022-12-07T16:09:55;32.17;;;11.93;;
72125;SDS011;59999;51.676;22.650;2022-12-07T16:12:21;42.13;;;15.23;;
72125;SDS011;59999;51.676;22.650;2022-12-07T16:14:47;79.63;;;25.75;;
72125;SDS011;59999;51.676;22.650;2022-12-07T16:17:13;47.28;;;17.55;;
72125;SDS011;59999;51.676;22.650;2022-12-07T16:19:39;33.07;;;13.40;;
72125;SDS011;59999;51.676;22.650;2022-12-07T16:22:05;38.20;;;16.85;;
72125;SDS011;59999;51.676;22.650;2022-12-07T16:24:31;27.65;;;11.05;;
72125;SDS011;59999;51.676;22.650;2022-12-07T16:26:57;29.08;;;10.75;;
72125;SDS011;59999;51.676;22.650;2022-12-07T16:29:23;22.83;;;9.10;;
72125;SDS011;59999;51.676;22.650;2022-12-07T16:31:50;21.80;;;9.55;;
72125;SDS011;59999;51.676;22.650;2022-12-07T16:34:18;24.13;;;8.90;;
72125;SDS011;59999;51.676;22.650;2022-12-07T16:36:44;34.88;;;14.25;;
72125;SDS011;59999;51.676;22.650;2022-12-07T16:39:10;28.98;;;10.90;;
72125;SDS011;59999;51.676;22.650;2022-12-07T16:41:36;33.93;;;14.00;;
72125;SDS011;59999;51.676;22.650;2022-12-07T16:44:04;26.92;;;11.88;;
72125;SDS011;59999;51.676;22.650;2022-12-07T16:46:32;22.58;;;10.07;;